Time;durP1;ratioP1;P1;durP2;ratioP2;P2;SDS_P1;SDS_P2;PMS_P1;PMS_P2;Temp;Humidity;BMP_temperature;BMP_pressure;BME280_temperature;BME280_humidity;BME280_pressure;Samples;Min_cycle;Max_cycle;Signal;HPM_P1;HPM_P2
2023/03/06 00:01:16;;;;;;;25.77;14.55;;;3.10;65.40;;;;;;5054233;28;20036;-73
2023/03/06 00:03:42;;;;;;;26.27;14.32;;;3.10;65.30;;;;;;5054101;28;20473;-73
2023/03/06 00:06:07;;;;;;;26.55;14.93;;;3.00;65.10;;;;;;5054265;28;20075;-74
2023/03/06 00:08:33;;;;;;;27.70;14.13;;;3.10;65.10;;;;;;5054046;28;20025;-73
2023/03/06 00:10:58;;;;;;;23.85;13.52;;;3.00;65.00;;;;;;5036152;28;20140;-73
2023/03/06 00:13:28;;;;;;;28.08;14.57;;;3.10;65.20;;;;;;5053970;28;20029;-73
2023/03/06 00:15:57;;;;;;;27.35;13.93;;;3.00;65.20;;;;;;5053828;28;20023;-74
2023/03/06 00:18:23;;;;;;;28.75;13.85;;;3.00;65.20;;;;;;5053597;28;20041;-73
2023/03/06 00:20:48;;;;;;;20.13;12.25;;;3.00;65.20;;;;;;5053888;28;20039;-73
2023/03/06 00:23:14;;;;;;;24.95;12.95;;;3.00;65.10;;;;;;5053608;28;20100;-74
2023/03/06 00:25:44;;;;;;;26.17;13.50;;;3.00;65.00;;;;;;5053691;28;20554;-73
2023/03/06 00:28:11;;;;;;;24.88;13.60;;;2.90;64.80;;;;;;5053586;28;20104;-73
2023/03/06 00:30:37;;;;;;;22.25;12.20;;;2.90;64.80;;;;;;5054017;28;20017;-73
2023/03/06 00:33:02;;;;;;;22.65;12.35;;;2.80;64.90;;;;;;5058840;28;20027;-73
2023/03/06 00:35:28;;;;;;;23.17;11.82;;;2.70;65.00;;;;;;5054935;28;20035;-73
2023/03/06 00:37:53;;;;;;;18.90;10.93;;;2.70;65.10;;;;;;5053396;28;20463;-73
2023/03/06 00:40:20;;;;;;;20.50;11.75;;;2.70;65.30;;;;;;5053466;28;20040;-73
2023/03/06 00:42:47;;;;;;;23.20;13.45;;;2.70;65.40;;;;;;5053551;28;20021;-73
2023/03/06 00:45:13;;;;;;;22.23;12.00;;;2.70;65.50;;;;;;5053357;28;20365;-73
2023/03/06 00:47:39;;;;;;;21.40;12.07;;;2.70;65.60;;;;;;5053817;28;20033;-75
2023/03/06 00:50:05;;;;;;;21.02;11.70;;;2.70;65.50;;;;;;5054141;28;20033;-76
2023/03/06 00:52:31;;;;;;;19.88;11.75;;;2.70;65.40;;;;;;5054470;28;20090;-74
2023/03/06 00:54:56;;;;;;;20.63;11.60;;;2.70;65.40;;;;;;5053338;28;20029;-73
2023/03/06 00:57:23;;;;;;;21.67;12.77;;;2.70;65.10;;;;;;5053030;28;20088;-74
2023/03/06 00:59:49;;;;;;;22.95;11.98;;;2.70;65.20;;;;;;5054827;28;20021;-74
2023/03/06 01:02:14;;;;;;;22.55;12.27;;;2.60;65.10;;;;;;5060151;28;20036;-76
2023/03/06 01:04:40;;;;;;;21.33;11.90;;;2.70;65.40;;;;;;5052749;28;20107;-75
2023/03/06 01:07:05;;;;;;;20.17;12.27;;;2.60;65.30;;;;;;5052877;28;20025;-73
2023/03/06 01:09:31;;;;;;;18.45;11.40;;;2.60;65.30;;;;;;5052869;28;20025;-73
2023/03/06 01:11:57;;;;;;;24.30;12.23;;;2.70;65.40;;;;;;5052934;28;20021;-73
2023/03/06 01:14:23;;;;;;;21.50;12.23;;;2.60;65.00;;;;;;5052809;28;20037;-73
2023/03/06 01:16:48;;;;;;;21.52;12.10;;;2.70;64.90;;;;;;5052713;28;20075;-72
2023/03/06 01:19:14;;;;;;;21.42;12.05;;;2.70;64.60;;;;;;5034637;28;20080;-72
2023/03/06 01:21:40;;;;;;;21.90;11.95;;;2.70;64.40;;;;;;5052705;28;20477;-73
2023/03/06 01:24:06;;;;;;;20.15;11.85;;;2.70;64.30;;;;;;5052645;28;20025;-74
2023/03/06 01:26:32;;;;;;;23.10;12.38;;;2.70;64.30;;;;;;5052718;28;20444;-72
2023/03/06 01:28:57;;;;;;;18.90;10.50;;;2.70;64.00;;;;;;5052509;28;20501;-72
2023/03/06 01:31:24;;;;;;;23.30;11.68;;;2.70;63.80;;;;;;5052766;28;20033;-73
2023/03/06 01:33:49;;;;;;;19.63;11.30;;;2.70;63.70;;;;;;5052682;28;20037;-72
2023/03/06 01:36:15;;;;;;;23.92;12.32;;;2.70;63.60;;;;;;5052600;28;20028;-73
2023/03/06 01:38:41;;;;;;;18.95;11.15;;;2.80;63.50;;;;;;5052552;28;20056;-73
2023/03/06 01:41:06;;;;;;;22.60;11.57;;;2.80;63.00;;;;;;5052517;28;20061;-73
2023/03/06 01:43:35;;;;;;;22.08;11.10;;;2.80;62.90;;;;;;5052508;28;20143;-72
2023/03/06 01:46:32;;;;;;;21.25;11.57;;;2.80;62.70;;;;;;5052573;28;20028;-73
2023/03/06 01:49:00;;;;;;;20.73;11.43;;;2.90;62.60;;;;;;5056594;28;20484;-72
2023/03/06 01:51:30;;;;;;;18.15;10.77;;;2.90;62.20;;;;;;5056612;28;20025;-74
2023/03/06 01:53:59;;;;;;;17.98;10.73;;;2.90;62.20;;;;;;5056493;28;20083;-72
2023/03/06 01:56:25;;;;;;;19.45;11.10;;;2.90;62.20;;;;;;5056372;28;20092;-73
2023/03/06 01:58:52;;;;;;;21.52;10.77;;;2.90;62.10;;;;;;5056400;28;20032;-73
2023/03/06 02:01:18;;;;;;;19.15;10.82;;;3.00;62.00;;;;;;5056414;28;20029;-73
2023/03/06 02:03:46;;;;;;;20.63;11.77;;;3.00;62.00;;;;;;5038400;28;20033;-73
2023/03/06 02:06:11;;;;;;;20.35;10.85;;;3.00;61.90;;;;;;5056305;28;20108;-73
2023/03/06 02:08:37;;;;;;;21.65;12.02;;;2.90;61.60;;;;;;5056050;28;20113;-73
2023/03/06 02:11:19;;;;;;;18.48;10.82;;;2.90;61.60;;;;;;5056232;28;20021;-73
2023/03/06 02:13:46;;;;;;;19.45;11.43;;;3.00;61.70;;;;;;5056077;28;20032;-74
2023/03/06 02:16:13;;;;;;;19.73;11.13;;;3.00;61.70;;;;;;5055975;28;20040;-73
2023/03/06 02:18:40;;;;;;;21.50;12.20;;;3.00;61.90;;;;;;5055918;28;20128;-73
2023/03/06 02:21:10;;;;;;;20.02;11.32;;;2.90;62.20;;;;;;5056020;28;20481;-72
2023/03/06 02:24:08;;;;;;;18.35;10.20;;;3.00;62.20;;;;;;5055929;28;20083;-73
2023/03/06 02:26:36;;;;;;;19.00;10.52;;;3.00;62.30;;;;;;5055861;28;20025;-73
2023/03/06 02:29:02;;;;;;;20.08;10.82;;;3.00;62.40;;;;;;5055827;28;20017;-72
2023/03/06 02:31:31;;;;;;;19.35;10.90;;;3.00;62.50;;;;;;5055914;28;20044;-73
2023/03/06 02:34:25;;;;;;;16.63;10.23;;;3.00;62.50;;;;;;5055816;28;20017;-73
2023/03/06 02:37:01;;;;;;;17.23;10.18;;;3.00;62.60;;;;;;5055166;28;20120;-73
2023/03/06 02:39:31;;;;;;;21.50;11.25;;;3.00;62.60;;;;;;5055960;28;20032;-74
2023/03/06 02:41:56;;;;;;;21.27;11.45;;;3.00;62.70;;;;;;5055620;28;20033;-74
2023/03/06 02:44:23;;;;;;;19.83;10.40;;;3.00;62.70;;;;;;5055628;28;20074;-74
2023/03/06 02:46:48;;;;;;;16.77;10.63;;;3.00;62.70;;;;;;5055612;28;20040;-73
2023/03/06 02:49:14;;;;;;;16.70;9.77;;;3.00;62.60;;;;;;5055661;28;20024;-73
2023/03/06 02:51:39;;;;;;;18.05;9.73;;;3.00;62.60;;;;;;5055422;28;20021;-73
2023/03/06 02:54:05;;;;;;;17.48;10.75;;;3.00;62.60;;;;;;5055457;28;20052;-73
2023/03/06 02:56:31;;;;;;;19.65;10.88;;;3.00;62.20;;;;;;5055218;28;20100;-73
2023/03/06 02:58:56;;;;;;;20.67;11.20;;;3.00;62.10;;;;;;5054838;28;20032;-73
2023/03/06 03:01:22;;;;;;;19.67;10.43;;;3.00;62.10;;;;;;5037327;28;20033;-73
2023/03/06 03:03:47;;;;;;;20.52;10.43;;;3.00;62.00;;;;;;5056607;28;20029;-75
2023/03/06 03:06:13;;;;;;;19.58;11.13;;;3.00;62.00;;;;;;5060555;28;20452;-74
2023/03/06 03:08:38;;;;;;;19.35;11.38;;;2.90;62.40;;;;;;5055259;28;20049;-74
2023/03/06 03:11:04;;;;;;;17.02;9.90;;;2.90;62.50;;;;;;5055035;28;20096;-73
2023/03/06 03:13:31;;;;;;;20.70;11.13;;;2.90;62.70;;;;;;5054992;28;20021;-73
2023/03/06 03:16:02;;;;;;;18.83;10.45;;;2.90;62.80;;;;;;5055029;28;21884;-74
2023/03/06 03:18:28;;;;;;;17.45;9.90;;;2.90;63.00;;;;;;5037902;28;20052;-74
2023/03/06 03:20:54;;;;;;;18.20;9.93;;;3.00;63.10;;;;;;5054909;28;20025;-73
2023/03/06 03:23:20;;;;;;;20.67;11.02;;;3.00;63.40;;;;;;5054818;28;20029;-73
2023/03/06 03:25:46;;;;;;;19.58;11.23;;;3.00;63.60;;;;;;5054642;28;20101;-73
2023/03/06 03:28:11;;;;;;;17.08;10.02;;;3.00;63.70;;;;;;5054812;28;20033;-73
2023/03/06 03:30:38;;;;;;;19.33;10.63;;;3.00;63.60;;;;;;5054821;28;20024;-73
2023/03/06 03:33:04;;;;;;;20.63;10.48;;;3.00;63.60;;;;;;5054740;28;20059;-73
2023/03/06 03:35:29;;;;;;;23.02;11.50;;;3.00;63.50;;;;;;5054688;28;20114;-74
2023/03/06 03:37:55;;;;;;;20.55;11.02;;;3.00;63.50;;;;;;5054598;28;20187;-73
2023/03/06 03:40:21;;;;;;;20.75;11.45;;;3.00;63.60;;;;;;5036768;28;20024;-74
2023/03/06 03:42:46;;;;;;;19.83;10.98;;;3.00;63.70;;;;;;5054667;28;20029;-74
2023/03/06 03:45:12;;;;;;;17.20;10.63;;;3.00;63.70;;;;;;5054432;28;20070;-73
2023/03/06 03:47:37;;;;;;;20.77;11.13;;;3.00;63.60;;;;;;5054408;28;20029;-74
2023/03/06 03:50:03;;;;;;;18.65;10.55;;;3.00;63.50;;;;;;5054309;28;20363;-73
2023/03/06 03:52:29;;;;;;;20.70;10.98;;;3.10;63.50;;;;;;5054284;28;20032;-73
2023/03/06 03:54:54;;;;;;;27.40;13.68;;;3.10;63.20;;;;;;5054293;28;20079;-73
2023/03/06 03:57:20;;;;;;;27.27;15.30;;;3.10;63.00;;;;;;5054332;28;20037;-74
2023/03/06 03:59:45;;;;;;;22.25;14.20;;;3.00;63.20;;;;;;5054300;28;20048;-74
2023/03/06 04:02:11;;;;;;;20.00;11.50;;;3.00;63.70;;;;;;5054219;28;20021;-73
2023/03/06 04:04:37;;;;;;;19.75;11.07;;;3.00;64.10;;;;;;5054104;28;20033;-73
2023/03/06 04:07:03;;;;;;;20.98;11.75;;;3.00;64.30;;;;;;5054120;28;20021;-73
2023/03/06 04:09:29;;;;;;;18.67;10.73;;;3.00;64.50;;;;;;5053296;28;20021;-74
2023/03/06 04:11:54;;;;;;;18.85;9.88;;;3.00;64.70;;;;;;5054126;28;20116;-73
2023/03/06 04:14:20;;;;;;;16.98;9.85;;;3.00;64.80;;;;;;5035925;28;20107;-74
2023/03/06 04:16:46;;;;;;;17.20;10.13;;;2.90;64.90;;;;;;5053731;28;20037;-74
2023/03/06 04:19:11;;;;;;;19.13;9.93;;;2.90;64.80;;;;;;5053623;28;20064;-73
2023/03/06 04:21:37;;;;;;;20.30;11.75;;;2.90;64.70;;;;;;5053731;28;20025;-73
2023/03/06 04:24:03;;;;;;;19.27;11.00;;;2.90;64.60;;;;;;5053610;28;20099;-74
2023/03/06 04:26:28;;;;;;;18.48;10.75;;;2.90;64.70;;;;;;5054089;28;20033;-73
2023/03/06 04:28:55;;;;;;;22.52;12.20;;;2.90;64.60;;;;;;5053530;28;20092;-73
2023/03/06 04:31:20;;;;;;;22.13;11.63;;;2.90;64.60;;;;;;5053617;28;20025;-74
2023/03/06 04:33:46;;;;;;;18.58;10.60;;;2.90;64.70;;;;;;5053498;28;20023;-73
2023/03/06 04:36:27;;;;;;;20.00;11.18;;;2.90;64.70;;;;;;5053305;28;20029;-74
2023/03/06 04:38:52;;;;;;;20.48;11.05;;;2.90;64.80;;;;;;5053436;28;20017;-75
2023/03/06 04:41:18;;;;;;;20.13;11.75;;;2.90;64.70;;;;;;5053232;28;20543;-74
2023/03/06 04:43:45;;;;;;;19.13;11.45;;;2.90;64.80;;;;;;5053283;28;20393;-74
2023/03/06 04:46:10;;;;;;;17.58;10.65;;;2.90;64.60;;;;;;5053156;28;20067;-74
2023/03/06 04:48:36;;;;;;;17.67;10.55;;;2.90;64.50;;;;;;5035318;28;20057;-74
2023/03/06 04:51:02;;;;;;;20.55;11.20;;;2.80;64.60;;;;;;5052993;28;20111;-73
2023/03/06 04:53:27;;;;;;;17.42;10.27;;;2.80;64.80;;;;;;5053068;28;20025;-74
2023/03/06 04:55:53;;;;;;;20.95;11.57;;;2.80;64.90;;;;;;5052981;28;20474;-73
2023/03/06 04:58:19;;;;;;;18.77;11.27;;;2.80;65.70;;;;;;5052988;28;20041;-73
2023/03/06 05:00:45;;;;;;;21.67;12.23;;;2.80;64.90;;;;;;5052980;28;20040;-74
2023/03/06 05:03:13;;;;;;;18.92;11.50;;;2.90;65.30;;;;;;5052988;28;20075;-74
2023/03/06 05:05:38;;;;;;;21.13;11.88;;;2.90;65.10;;;;;;5052899;28;20024;-73
2023/03/06 05:08:04;;;;;;;20.05;11.75;;;2.90;65.10;;;;;;5052937;28;20458;-73
2023/03/06 05:10:30;;;;;;;19.45;10.90;;;2.90;65.00;;;;;;5053014;28;20021;-73
2023/03/06 05:12:55;;;;;;;18.63;11.10;;;2.90;65.00;;;;;;5052885;28;20027;-74
2023/03/06 05:15:21;;;;;;;23.75;11.90;;;2.90;65.00;;;;;;5034933;28;20025;-73
2023/03/06 05:17:46;;;;;;;22.65;12.07;;;2.90;65.00;;;;;;5052621;28;20124;-73
2023/03/06 05:20:13;;;;;;;23.73;12.63;;;2.90;65.00;;;;;;5052702;28;20402;-72
2023/03/06 05:22:39;;;;;;;23.02;12.65;;;2.80;64.70;;;;;;5052803;28;20029;-73
2023/03/06 05:25:05;;;;;;;25.23;13.20;;;2.80;64.90;;;;;;5052749;28;20087;-74
2023/03/06 05:27:31;;;;;;;22.77;12.65;;;2.80;64.90;;;;;;5052716;28;20097;-73
2023/03/06 05:29:57;;;;;;;22.50;12.85;;;2.90;65.10;;;;;;5052710;28;20064;-73
2023/03/06 05:32:22;;;;;;;26.48;14.15;;;2.90;65.00;;;;;;5052731;28;20029;-74
2023/03/06 05:34:48;;;;;;;24.33;14.18;;;2.80;64.80;;;;;;5052667;28;20037;-74
2023/03/06 05:37:14;;;;;;;26.35;14.00;;;2.90;64.90;;;;;;5052673;28;20029;-73
2023/03/06 05:39:39;;;;;;;25.73;12.82;;;2.90;64.80;;;;;;5052571;28;20112;-73
2023/03/06 05:42:05;;;;;;;24.75;13.52;;;2.90;64.80;;;;;;5052437;28;20176;-73
2023/03/06 05:44:32;;;;;;;30.95;14.15;;;2.90;64.80;;;;;;5052486;28;20100;-73
2023/03/06 05:46:58;;;;;;;24.73;12.05;;;2.90;64.90;;;;;;5052712;28;20170;-74
2023/03/06 05:49:23;;;;;;;22.85;12.98;;;2.90;65.00;;;;;;5052483;28;20494;-73
2023/03/06 05:51:49;;;;;;;22.58;13.35;;;2.90;65.00;;;;;;5034671;28;20480;-73
2023/03/06 05:54:15;;;;;;;23.77;13.02;;;2.90;64.90;;;;;;5052575;28;20060;-74
2023/03/06 05:56:40;;;;;;;24.13;12.60;;;3.00;64.70;;;;;;5052465;28;20033;-74
2023/03/06 05:59:06;;;;;;;25.83;13.05;;;3.00;64.60;;;;;;5052382;28;20025;-74
2023/03/06 06:01:31;;;;;;;21.92;12.73;;;3.00;64.60;;;;;;5052451;28;20488;-74
2023/03/06 06:03:57;;;;;;;23.25;12.68;;;2.90;64.80;;;;;;5052220;28;20028;-74
2023/03/06 06:06:22;;;;;;;21.50;12.02;;;3.00;64.90;;;;;;5052434;28;20381;-74
2023/03/06 06:08:48;;;;;;;25.27;12.65;;;2.90;65.00;;;;;;5052251;28;20493;-74
2023/03/06 06:11:14;;;;;;;30.20;14.10;;;3.00;65.00;;;;;;5052433;28;20075;-74
2023/03/06 06:13:39;;;;;;;30.70;15.52;;;3.00;64.80;;;;;;5052157;28;20033;-74
2023/03/06 06:16:08;;;;;;;33.80;15.90;;;2.90;64.90;;;;;;5052109;28;20362;-74
2023/03/06 06:18:34;;;;;;;32.13;16.05;;;2.90;65.00;;;;;;5034076;28;20047;-73
2023/03/06 06:21:06;;;;;;;31.73;16.00;;;2.90;65.20;;;;;;5051966;28;20029;-73
2023/03/06 06:23:32;;;;;;;30.27;16.33;;;2.90;65.20;;;;;;5052080;28;20538;-73
2023/03/06 06:26:03;;;;;;;30.02;15.13;;;3.00;65.20;;;;;;5051816;28;20100;-73
2023/03/06 06:28:29;;;;;;;32.47;15.13;;;2.90;65.30;;;;;;5051751;28;20125;-73
2023/03/06 06:30:55;;;;;;;25.85;13.88;;;2.90;65.60;;;;;;5051388;28;20079;-73
2023/03/06 06:33:22;;;;;;;24.77;13.73;;;3.00;65.40;;;;;;5053754;28;20025;-73
2023/03/06 06:35:48;;;;;;;25.38;13.95;;;2.90;65.20;;;;;;5055369;28;20493;-76
2023/03/06 06:38:14;;;;;;;26.98;14.35;;;3.00;65.00;;;;;;5055685;28;20036;-74
2023/03/06 06:40:39;;;;;;;25.70;14.45;;;3.00;65.00;;;;;;5055350;28;20078;-74
2023/03/06 06:43:05;;;;;;;22.50;13.77;;;2.90;64.70;;;;;;5055430;28;20025;-73
2023/03/06 06:45:30;;;;;;;24.20;13.38;;;3.00;64.80;;;;;;5055411;28;20438;-73
2023/03/06 06:47:56;;;;;;;26.52;13.85;;;3.00;65.00;;;;;;5037281;28;20021;-75
2023/03/06 06:50:21;;;;;;;29.95;15.02;;;3.00;65.20;;;;;;5055231;28;20029;-74
2023/03/06 06:52:47;;;;;;;33.00;17.23;;;3.10;65.20;;;;;;5055067;28;20029;-75
2023/03/06 06:55:12;;;;;;;30.25;16.90;;;3.10;65.00;;;;;;5054881;28;20035;-73
2023/03/06 06:57:40;;;;;;;34.47;16.38;;;3.10;64.90;;;;;;5054969;28;20060;-74
2023/03/06 07:00:06;;;;;;;31.42;16.58;;;3.10;65.10;;;;;;5055119;28;20052;-74
2023/03/06 07:02:32;;;;;;;34.33;18.45;;;3.10;64.70;;;;;;5036888;28;20036;-76
2023/03/06 07:04:58;;;;;;;31.35;15.93;;;3.10;64.60;;;;;;5054747;28;20155;-74
2023/03/06 07:07:23;;;;;;;31.92;17.45;;;3.20;64.00;;;;;;5054939;28;20028;-74
2023/03/06 07:09:49;;;;;;;26.35;16.38;;;3.20;63.70;;;;;;5054704;28;20033;-75
2023/03/06 07:12:14;;;;;;;34.40;18.33;;;3.10;63.90;;;;;;5054890;28;20032;-75
2023/03/06 07:14:41;;;;;;;30.23;16.42;;;3.10;64.10;;;;;;5054796;28;20555;-76
2023/03/06 07:17:07;;;;;;;31.52;16.20;;;3.00;64.20;;;;;;5054755;28;20040;-76
2023/03/06 07:19:33;;;;;;;29.52;17.17;;;3.00;64.40;;;;;;5054556;28;20041;-76
2023/03/06 07:21:59;;;;;;;29.95;16.48;;;3.00;64.40;;;;;;5054684;28;20040;-77
2023/03/06 07:24:25;;;;;;;27.65;15.55;;;3.00;65.10;;;;;;5037045;28;20094;-77
2023/03/06 07:26:51;;;;;;;30.23;16.73;;;3.00;65.70;;;;;;5054617;28;20024;-74
2023/03/06 07:29:16;;;;;;;40.47;19.25;;;3.00;65.50;;;;;;5054257;28;20036;-76
2023/03/06 07:31:42;;;;;;;29.02;16.67;;;2.90;65.90;;;;;;5054396;28;20379;-74
2023/03/06 07:34:13;;;;;;;27.10;15.57;;;3.00;65.30;;;;;;5054426;28;20021;-77
2023/03/06 07:36:39;;;;;;;29.40;16.02;;;2.90;65.30;;;;;;5054622;28;20455;-75
2023/03/06 07:39:08;;;;;;;31.80;17.05;;;2.90;65.50;;;;;;5036396;28;20081;-75
2023/03/06 07:41:34;;;;;;;26.58;15.85;;;2.90;65.70;;;;;;5036795;28;20028;-75
2023/03/06 07:44:00;;;;;;;27.75;15.23;;;2.80;65.50;;;;;;5053089;28;20033;-73
2023/03/06 07:46:26;;;;;;;30.83;17.15;;;2.80;65.90;;;;;;5054120;28;20036;-76
2023/03/06 07:48:52;;;;;;;32.38;17.02;;;2.80;66.10;;;;;;5054173;28;20029;-76
2023/03/06 07:51:20;;;;;;;32.80;18.38;;;2.70;66.50;;;;;;5054255;28;20443;-76
2023/03/06 07:53:46;;;;;;;33.10;17.83;;;2.70;66.30;;;;;;5035979;28;20017;-77
2023/03/06 07:56:12;;;;;;;34.65;18.35;;;2.70;66.20;;;;;;5054042;28;20110;-75
2023/03/06 07:58:40;;;;;;;37.60;19.65;;;2.70;66.30;;;;;;5053886;28;20032;-76
2023/03/06 08:01:11;;;;;;;29.35;17.80;;;2.50;67.70;;;;;;5053698;28;20116;-76
2023/03/06 08:03:37;;;;;;;36.95;19.27;;;2.60;67.70;;;;;;5053753;28;20033;-76
2023/03/06 08:06:18;;;;;;;31.23;17.00;;;2.60;67.70;;;;;;5053492;28;20063;-76
2023/03/06 08:08:46;;;;;;;28.10;16.27;;;2.70;67.30;;;;;;5053674;28;20044;-76
2023/03/06 08:11:13;;;;;;;32.58;18.35;;;2.70;67.20;;;;;;5053697;28;20029;-76
2023/03/06 08:13:40;;;;;;;32.78;18.30;;;2.70;67.20;;;;;;5053575;28;20074;-79
2023/03/06 08:16:06;;;;;;;26.38;16.25;;;2.80;67.20;;;;;;5053548;28;20083;-80
2023/03/06 08:18:31;;;;;;;37.08;16.27;;;2.80;67.50;;;;;;5053350;28;20053;-78
2023/03/06 08:21:06;;;;;;;32.72;16.85;;;3.30;82.70;;;;;;5053376;28;20025;-76
2023/03/06 08:23:32;;;;;;;26.55;15.73;;;3.50;79.10;;;;;;5035214;28;20036;-78
2023/03/06 08:26:00;;;;;;;28.73;16.85;;;3.70;71.70;;;;;;5053376;28;20075;-76
2023/03/06 08:28:27;;;;;;;24.85;15.82;;;3.80;67.60;;;;;;5053030;28;20036;-75
2023/03/06 08:30:53;;;;;;;25.80;15.05;;;3.80;67.70;;;;;;5034882;28;20029;-73
2023/03/06 08:33:18;;;;;;;28.80;16.00;;;3.90;66.40;;;;;;5035413;28;20502;-75
2023/03/06 08:35:44;;;;;;;35.65;16.35;;;4.10;65.40;;;;;;5035790;28;20019;-73
2023/03/06 08:38:09;;;;;;;29.70;15.40;;;4.10;65.60;;;;;;5035510;28;20037;-72
2023/03/06 08:40:35;;;;;;;28.75;17.17;;;4.20;63.80;;;;;;5035442;28;20033;-77
2023/03/06 08:43:00;;;;;;;25.85;14.77;;;4.20;61.60;;;;;;5053167;28;20055;-77
2023/03/06 08:45:26;;;;;;;24.45;14.57;;;3.80;61.10;;;;;;5052843;28;20659;-72
2023/03/06 08:47:51;;;;;;;27.75;15.00;;;3.70;61.90;;;;;;5034751;28;20017;-76
2023/03/06 08:50:17;;;;;;;26.45;14.52;;;3.50;63.00;;;;;;5053017;28;20398;-76
2023/03/06 08:52:43;;;;;;;30.95;15.85;;;3.30;64.30;;;;;;5052999;28;20056;-76
2023/03/06 08:55:09;;;;;;;28.48;16.35;;;3.30;64.30;;;;;;5052708;28;20120;-76
2023/03/06 08:57:35;;;;;;;30.70;16.15;;;3.30;63.90;;;;;;5052976;28;20429;-77
2023/03/06 09:00:03;;;;;;;28.42;15.75;;;3.20;63.60;;;;;;5052913;28;20037;-77
2023/03/06 09:02:28;;;;;;;25.13;14.68;;;3.20;64.10;;;;;;5052897;28;20044;-76
2023/03/06 09:04:54;;;;;;;26.42;15.80;;;3.20;63.80;;;;;;5053163;28;20017;-77
2023/03/06 09:07:20;;;;;;;25.23;15.95;;;3.10;63.60;;;;;;5035019;28;20021;-77
2023/03/06 09:09:45;;;;;;;29.15;15.98;;;3.10;63.90;;;;;;5052852;28;20025;-74
2023/03/06 09:12:11;;;;;;;25.13;15.20;;;3.00;64.60;;;;;;5053108;28;20029;-73
2023/03/06 09:14:37;;;;;;;26.40;15.88;;;3.00;65.60;;;;;;5052774;28;20032;-72
2023/03/06 09:17:02;;;;;;;28.20;15.90;;;2.90;65.60;;;;;;5052448;28;20037;-73
2023/03/06 09:19:28;;;;;;;28.75;17.83;;;2.90;65.70;;;;;;5052608;28;20126;-73
2023/03/06 09:21:53;;;;;;;35.58;17.80;;;2.90;66.00;;;;;;5052639;28;20055;-75
2023/03/06 09:24:19;;;;;;;29.52;16.52;;;2.80;66.60;;;;;;5052689;28;20385;-74
2023/03/06 09:26:44;;;;;;;34.22;17.83;;;2.80;66.40;;;;;;5051419;28;20032;-73
2023/03/06 09:29:11;;;;;;;26.30;15.90;;;2.80;66.80;;;;;;5051279;28;20021;-76
2023/03/06 09:31:36;;;;;;;32.85;18.60;;;2.80;67.10;;;;;;5051532;28;20052;-76
2023/03/06 09:34:02;;;;;;;34.50;18.85;;;2.90;67.30;;;;;;5051254;28;20067;-72
2023/03/06 09:36:27;;;;;;;33.88;19.92;;;2.80;68.10;;;;;;5051038;28;20060;-72
2023/03/06 09:38:53;;;;;;;34.35;19.05;;;2.50;69.00;;;;;;5051195;28;20033;-72
2023/03/06 09:41:31;;;;;;;34.42;20.25;;;2.60;69.00;;;;;;5033211;28;20021;-74
2023/03/06 09:44:22;;;;;;;33.60;17.52;;;2.60;68.90;;;;;;5050985;28;20017;-73
2023/03/06 09:47:16;;;;;;;32.13;18.88;;;2.70;68.00;;;;;;5049320;28;20029;-73
2023/03/06 09:50:07;;;;;;;34.47;18.95;;;2.70;67.10;;;;;;5048457;28;20535;-73
2023/03/06 09:53:14;;;;;;;31.42;18.15;;;2.70;67.40;;;;;;5049993;28;20550;-73
2023/03/06 09:55:39;;;;;;;;;;;2.90;67.30;;;;;;5051365;28;20106;-73
2023/03/06 09:58:12;;;;;;;34.63;18.77;;;2.90;66.60;;;;;;5032617;28;20433;-73
2023/03/06 10:00:54;;;;;;;27.13;15.90;;;2.90;67.00;;;;;;5050854;28;20036;-73
2023/03/06 10:03:45;;;;;;;28.45;16.35;;;3.00;65.60;;;;;;5050719;28;20021;-76
2023/03/06 10:06:25;;;;;;;28.92;16.70;;;3.00;65.50;;;;;;5049406;28;20021;-73
2023/03/06 10:09:06;;;;;;;25.67;14.85;;;3.00;65.40;;;;;;5052261;28;20017;-71
2023/03/06 10:11:47;;;;;;;26.42;15.50;;;3.00;64.50;;;;;;5035770;28;20366;-73
2023/03/06 10:14:43;;;;;;;27.92;15.52;;;2.90;64.60;;;;;;5056003;28;20021;-73
2023/03/06 10:17:19;;;;;;;24.05;14.25;;;3.00;64.70;;;;;;5055879;28;20552;-73
2023/03/06 10:19:48;;;;;;;20.45;13.18;;;3.10;63.40;;;;;;5055901;28;20060;-74
2023/03/06 10:22:52;;;;;;;24.25;14.95;;;3.30;62.40;;;;;;5055722;28;20052;-76
2023/03/06 10:25:26;;;;;;;28.17;14.75;;;3.40;62.30;;;;;;4994507;28;20466;-77
2023/03/06 10:28:15;;;;;;;23.75;13.48;;;3.40;62.30;;;;;;5055820;28;20029;-77
2023/03/06 10:31:10;;;;;;;25.23;13.77;;;3.50;60.60;;;;;;5055643;28;20095;-76
2023/03/06 10:33:46;;;;;;;25.93;14.23;;;3.60;60.40;;;;;;5037807;28;20028;-75
2023/03/06 10:36:17;;;;;;;22.23;13.30;;;3.70;60.40;;;;;;5055550;28;20017;-74
2023/03/06 10:38:44;;;;;;;21.85;13.77;;;3.70;60.20;;;;;;5055712;28;20040;-77
2023/03/06 10:41:09;;;;;;;43.33;17.75;;;3.60;60.00;;;;;;5055463;28;20021;-76
2023/03/06 10:43:38;;;;;;;28.23;13.77;;;3.70;59.90;;;;;;5055381;28;20036;-75
2023/03/06 10:46:06;;;;;;;21.42;13.20;;;3.60;60.80;;;;;;5055424;28;20020;-75
2023/03/06 10:48:36;;;;;;;25.25;13.10;;;3.70;59.90;;;;;;5055245;28;20021;-77
2023/03/06 10:51:20;;;;;;;23.63;12.93;;;3.70;59.80;;;;;;5054733;28;20025;-75
2023/03/06 10:53:50;;;;;;;21.73;12.05;;;3.80;59.10;;;;;;5055348;28;20377;-74
2023/03/06 10:56:37;;;;;;;24.85;12.65;;;3.70;58.90;;;;;;5054860;28;20083;-72
2023/03/06 10:59:09;;;;;;;22.63;12.75;;;3.70;59.60;;;;;;5055265;28;20033;-74
2023/03/06 11:01:36;;;;;;;29.73;12.35;;;3.70;59.10;;;;;;5054713;28;20093;-77
2023/03/06 11:04:31;;;;;;;22.88;13.02;;;3.80;59.20;;;;;;5036765;28;20495;-76
2023/03/06 11:07:16;;;;;;;18.95;11.23;;;3.80;59.20;;;;;;5054716;28;20024;-78
2023/03/06 11:09:57;;;;;;;21.27;11.90;;;3.70;59.70;;;;;;5054432;28;20025;-75
2023/03/06 11:12:40;;;;;;;22.38;12.50;;;3.70;61.00;;;;;;5054628;28;20290;-75
2023/03/06 11:15:09;;;;;;;23.40;11.75;;;3.70;60.80;;;;;;5054555;28;20036;-75
2023/03/06 11:17:49;;;;;;;24.70;12.05;;;3.60;61.20;;;;;;5054192;28;20040;-75
2023/03/06 11:20:22;;;;;;;19.10;12.02;;;3.60;61.10;;;;;;5054435;28;20128;-77
2023/03/06 11:23:13;;;;;;;20.38;12.25;;;3.60;61.30;;;;;;5054771;28;20037;-76
2023/03/06 11:25:43;;;;;;;19.02;11.93;;;3.30;62.00;;;;;;5054780;28;20440;-77
2023/03/06 11:28:38;;;;;;;21.70;12.40;;;3.40;61.90;;;;;;5054545;28;20386;-76
2023/03/06 11:31:17;;;;;;;22.23;12.57;;;3.50;61.60;;;;;;5054507;28;20520;-73
2023/03/06 11:33:53;;;;;;;21.65;12.27;;;3.40;62.00;;;;;;5054759;28;20025;-75
2023/03/06 11:36:32;;;;;;;24.05;13.98;;;3.40;62.70;;;;;;5054251;28;20412;-72
2023/03/06 11:38:58;;;;;;;26.67;13.43;;;3.40;61.50;;;;;;5054510;28;20029;-73
2023/03/06 11:41:30;;;;;;;24.25;13.52;;;3.60;61.70;;;;;;5054180;28;20052;-73
2023/03/06 11:44:26;;;;;;;23.05;12.63;;;3.60;61.70;;;;;;5054096;28;20021;-74
2023/03/06 11:47:17;;;;;;;20.10;12.40;;;3.50;62.00;;;;;;5036405;28;20110;-75
2023/03/06 11:50:07;;;;;;;21.30;11.63;;;3.40;61.90;;;;;;5053251;28;20048;-74
2023/03/06 11:52:44;;;;;;;21.75;11.18;;;3.50;61.80;;;;;;5033244;28;20477;-74
2023/03/06 11:55:16;;;;;;;22.65;10.93;;;3.70;60.50;;;;;;5050282;28;20056;-74
2023/03/06 11:58:34;;;;;;;23.80;12.18;;;3.70;60.00;;;;;;5034129;28;20385;-73
2023/03/06 12:01:14;;;;;;;25.10;11.93;;;3.70;60.10;;;;;;5035835;28;20021;-73
2023/03/06 12:03:46;;;;;;;22.02;12.90;;;4.00;59.60;;;;;;5035662;28;20021;-73
2023/03/06 12:06:29;;;;;;;20.33;12.13;;;4.20;59.60;;;;;;5035858;28;20060;-74
2023/03/06 12:09:16;;;;;;;19.05;11.77;;;4.30;59.10;;;;;;5035900;28;20508;-74
2023/03/06 12:11:52;;;;;;;23.38;10.73;;;4.50;57.00;;;;;;5035743;28;20098;-74
2023/03/06 12:14:32;;;;;;;27.27;11.10;;;4.50;55.90;;;;;;5036255;28;20079;-74
2023/03/06 12:17:31;;;;;;;17.55;10.10;;;4.60;56.90;;;;;;5039792;28;20106;-75
2023/03/06 12:20:30;;;;;;;20.98;10.65;;;4.60;56.30;;;;;;5036007;28;20477;-75
2023/03/06 12:23:24;;;;;;;19.00;11.02;;;4.70;55.70;;;;;;5035751;28;20047;-75
2023/03/06 12:26:12;;;;;;;20.08;12.25;;;4.50;56.30;;;;;;5042769;28;20474;-75
2023/03/06 12:29:04;;;;;;;20.48;11.40;;;4.50;55.70;;;;;;5053368;28;20064;-75
2023/03/06 12:31:47;;;;;;;16.33;9.60;;;4.40;55.20;;;;;;5052755;28;20025;-75
2023/03/06 12:34:46;;;;;;;18.83;10.13;;;4.50;54.60;;;;;;5053314;28;20144;-75
2023/03/06 12:37:31;;;;;;;18.65;9.52;;;4.70;54.90;;;;;;5053365;28;20029;-76
2023/03/06 12:40:24;;;;;;;10.52;6.53;;;4.60;55.10;;;;;;5035532;28;20108;-73
2023/03/06 12:43:27;;;;;;;15.73;9.10;;;4.70;53.00;;;;;;5052976;28;20025;-74
2023/03/06 12:46:01;;;;;;;19.73;9.73;;;4.70;53.80;;;;;;5053264;28;20036;-74
2023/03/06 12:48:31;;;;;;;16.83;7.78;;;4.70;54.00;;;;;;5053285;28;20033;-74
2023/03/06 12:50:57;;;;;;;12.32;7.82;;;4.70;51.90;;;;;;5053167;28;20032;-74
2023/03/06 12:53:28;;;;;;;13.38;8.07;;;4.70;52.60;;;;;;5052891;28;20465;-75